createdAt,value
2023-03-08T00:03:57.685Z,98218.56
2023-03-08T00:09:01.730Z,98142.88
2023-03-08T00:14:04.068Z,98221.53
2023-03-08T00:19:06.219Z,98109.56
2023-03-08T00:24:08.678Z,98143.75
2023-03-08T00:29:11.141Z,98142.97
2023-03-08T00:34:13.413Z,97935.31
2023-03-08T00:39:16.744Z,98241.63
2023-03-08T00:44:18.956Z,97666.88
2023-03-08T00:49:22.906Z,98234.56
2023-03-08T00:54:26.473Z,98150.91
2023-03-08T00:59:29.052Z,98230.28
2023-03-08T01:04:34.099Z,97770.28
2023-03-08T01:09:36.478Z,98208.38
2023-03-08T01:14:38.732Z,98078.69
2023-03-08T01:19:42.516Z,97505.31
2023-03-08T01:24:48.725Z,97528.25
2023-03-08T01:29:53.999Z,98207.81
2023-03-08T01:34:56.591Z,98237.06
2023-03-08T01:39:58.975Z,97315.28
2023-03-08T01:45:04.056Z,97581.81
2023-03-08T01:50:11.126Z,97966.97
2023-03-08T01:55:15.370Z,97904.97
2023-03-08T02:00:23.595Z,98205.22
2023-03-08T02:05:28.045Z,98182.94
2023-03-08T02:10:36.717Z,98212.25
2023-03-08T02:15:59.497Z,98129.13
2023-03-08T02:21:03.293Z,98203.50
2023-03-08T02:26:06.174Z,98229.22
2023-03-08T02:31:08.572Z,97984.47
2023-03-08T02:36:12.687Z,97935.03
2023-03-08T02:41:14.960Z,98075.44
2023-03-08T02:46:19.063Z,98263.41
2023-03-08T02:51:21.307Z,98188.00
2023-03-08T02:56:23.555Z,98184.66
2023-03-08T03:01:26.322Z,98102.31
2023-03-08T03:06:28.688Z,98216.22
2023-03-08T03:11:32.304Z,98224.66
2023-03-08T03:16:34.912Z,98066.09
2023-03-08T03:21:39.389Z,98218.63
2023-03-08T03:26:41.699Z,98214.50
2023-03-08T03:31:44.477Z,98038.13
2023-03-08T03:36:47.523Z,98157.78
2023-03-08T03:41:49.892Z,98056.91
2023-03-08T03:46:52.317Z,97887.78
2023-03-08T03:51:59.705Z,98059.22
2023-03-08T03:57:09.710Z,98216.88
2023-03-08T04:02:15.067Z,98229.41
2023-03-08T04:07:28.977Z,98144.97
2023-03-08T04:12:33.885Z,98193.78
2023-03-08T04:17:36.366Z,98182.44
2023-03-08T04:22:38.815Z,98184.53
2023-03-08T04:27:48.809Z,98122.53
2023-03-08T04:32:51.349Z,97567.00
2023-03-08T04:37:54.949Z,98024.63
2023-03-08T04:43:00.452Z,97972.06
2023-03-08T04:48:11.808Z,97884.81
2023-03-08T04:53:14.151Z,98149.31
2023-03-08T04:58:18.326Z,97736.00
2023-03-08T05:03:21.193Z,98058.69
2023-03-08T05:08:45.334Z,98233.84
2023-03-08T05:13:48.030Z,97877.06
2023-03-08T05:18:50.474Z,97486.81
2023-03-08T05:23:55.832Z,98176.38
2023-03-08T05:29:07.210Z,98092.84
2023-03-08T05:34:11.629Z,98158.88
2023-03-08T05:39:18.043Z,98060.66
2023-03-08T05:44:36.494Z,98160.66
2023-03-08T05:49:58.738Z,98200.97
2023-03-08T05:55:06.122Z,98311.53
2023-03-08T06:00:09.631Z,98075.44
2023-03-08T06:05:18.206Z,98064.19
2023-03-08T06:10:43.392Z,98221.00
2023-03-08T06:15:46.110Z,98136.16
2023-03-08T06:21:02.253Z,98248.53
2023-03-08T06:26:08.289Z,98151.38
2023-03-08T06:31:16.601Z,98206.75
2023-03-08T06:36:21.102Z,98092.41
2023-03-08T06:41:24.945Z,98121.94
2023-03-08T06:46:30.868Z,97687.75
2023-03-08T06:51:33.327Z,98007.69
2023-03-08T06:56:35.585Z,97878.38
2023-03-08T07:01:37.996Z,98058.25
2023-03-08T07:06:40.339Z,98074.41
2023-03-08T07:11:42.681Z,97515.50
2023-03-08T07:16:44.857Z,98023.88
2023-03-08T07:21:47.103Z,97453.63
2023-03-08T07:26:50.728Z,98031.50
2023-03-08T07:31:55.921Z,97965.41
2023-03-08T07:36:58.155Z,97911.94
2023-03-08T07:42:00.348Z,98100.13
2023-03-08T07:47:02.658Z,97978.06
2023-03-08T07:52:05.175Z,98042.25
2023-03-08T07:57:07.423Z,98047.84
2023-03-08T08:02:13.221Z,97568.25
2023-03-08T08:07:16.456Z,97547.41
2023-03-08T08:12:18.874Z,97627.50
2023-03-08T08:17:21.639Z,98053.63
2023-03-08T08:22:23.912Z,97627.38
2023-03-08T08:27:26.107Z,97948.06
2023-03-08T08:32:28.477Z,97734.50
2023-03-08T08:37:32.540Z,97787.75
2023-03-08T08:42:34.761Z,97981.31
2023-03-08T08:47:37.074Z,97948.97
2023-03-08T08:52:39.427Z,97206.56
2023-03-08T08:57:41.626Z,97939.44
2023-03-08T09:02:44.020Z,97708.47
2023-03-08T09:07:46.332Z,97853.22
2023-03-08T09:12:49.683Z,97992.50
2023-03-08T09:17:52.324Z,98013.13
2023-03-08T09:22:54.679Z,97844.00
2023-03-08T09:27:57.278Z,97841.56
2023-03-08T09:33:00.050Z,97638.44
2023-03-08T09:38:02.443Z,97534.75
2023-03-08T09:43:05.988Z,97848.44
2023-03-08T09:48:34.790Z,97890.75
2023-03-08T09:53:48.536Z,97834.63
2023-03-08T09:58:55.010Z,97921.50
2023-03-08T10:04:03.361Z,97851.56
2023-03-08T10:09:28.336Z,97893.84
2023-03-08T10:14:33.795Z,97872.75
2023-03-08T10:20:09.536Z,97206.56
2023-03-08T10:25:38.453Z,97082.91
2023-03-08T10:30:45.561Z,97766.69
2023-03-08T10:36:06.488Z,97852.16
2023-03-08T10:41:18.328Z,97796.56
2023-03-08T10:46:25.865Z,97744.56
2023-03-08T10:51:31.656Z,97527.75
2023-03-08T10:56:52.260Z,97803.31
2023-03-08T11:01:57.480Z,97796.53
2023-03-08T11:07:10.799Z,97487.94
2023-03-08T11:12:23.529Z,97328.56
2023-03-08T11:17:35.752Z,97320.31
2023-03-08T11:22:50.156Z,97744.66
2023-03-08T11:28:08.479Z,97420.84
2023-03-08T11:33:51.107Z,97730.31
2023-03-08T11:39:05.267Z,97555.06
2023-03-08T11:44:19.563Z,97706.53
2023-03-08T11:49:31.670Z,97698.06
2023-03-08T11:54:40.059Z,97409.00
2023-03-08T11:59:45.390Z,97665.72
2023-03-08T12:05:08.271Z,97653.75
2023-03-08T12:10:55.009Z,97641.09
2023-03-08T12:16:19.065Z,97635.00
2023-03-08T12:21:34.809Z,97629.94
2023-03-08T12:26:41.740Z,97572.94
2023-03-08T12:31:48.637Z,97419.91
2023-03-08T12:36:53.947Z,97143.59
2023-03-08T12:42:14.632Z,97577.69
2023-03-08T12:47:21.352Z,97539.75
2023-03-08T12:52:33.563Z,97561.44
2023-03-08T12:57:43.208Z,97022.78
2023-03-08T13:02:45.451Z,97535.13
2023-03-08T13:08:07.015Z,97307.34
2023-03-08T13:13:20.550Z,97520.44
2023-03-08T13:18:33.274Z,97522.13
2023-03-08T13:23:39.846Z,97495.56
2023-03-08T13:28:47.782Z,97498.97
2023-03-08T13:33:55.436Z,97482.75
2023-03-08T13:39:23.095Z,97463.97
2023-03-08T13:44:27.024Z,97300.06
2023-03-08T13:49:34.118Z,97445.97
2023-03-08T13:54:39.967Z,97430.56
2023-03-08T13:59:49.059Z,97179.72
2023-03-08T14:04:51.909Z,96986.94
2023-03-08T14:09:54.636Z,97317.91
2023-03-08T14:15:05.283Z,97334.59
2023-03-08T14:20:21.677Z,97289.84
2023-03-08T14:25:33.538Z,97150.56
2023-03-08T14:30:47.155Z,97265.91
2023-03-08T14:35:55.860Z,97316.00
2023-03-08T14:41:04.035Z,97314.34
2023-03-08T14:46:09.431Z,96861.88
2023-03-08T14:51:17.792Z,97309.22
2023-03-08T14:56:19.994Z,97241.28
2023-03-08T15:01:34.412Z,97035.97
2023-03-08T15:06:39.069Z,96793.78
2023-03-08T15:11:41.442Z,97227.88
2023-03-08T15:16:43.806Z,97247.72
2023-03-08T15:21:47.590Z,97191.84
2023-03-08T15:26:49.884Z,97227.16
2023-03-08T15:31:52.449Z,96855.81
2023-03-08T15:36:55.197Z,97221.06
2023-03-08T15:41:57.543Z,97154.00
2023-03-08T15:47:01.835Z,96795.00
2023-03-08T15:52:04.390Z,97061.22
2023-03-08T15:57:07.101Z,96764.94
2023-03-08T16:02:20.249Z,97219.66
2023-03-08T16:07:22.879Z,97223.06
2023-03-08T16:12:25.073Z,97155.19
2023-03-08T16:17:29.906Z,97143.22
2023-03-08T16:22:33.670Z,97199.19
2023-03-08T16:27:38.275Z,96998.88
2023-03-08T16:32:40.843Z,96979.28
2023-03-08T16:37:43.036Z,97090.13
2023-03-08T16:42:45.304Z,96954.53
2023-03-08T16:47:47.579Z,97149.63
2023-03-08T16:52:54.127Z,96817.47
2023-03-08T16:57:56.441Z,96477.31
2023-03-08T17:02:58.624Z,96601.44
2023-03-08T17:08:00.770Z,97037.41
2023-03-08T17:13:03.120Z,96946.22
2023-03-08T17:18:05.651Z,97095.06
2023-03-08T17:23:09.778Z,97093.38
2023-03-08T17:28:12.159Z,96765.56
2023-03-08T17:33:40.021Z,96580.28
2023-03-08T17:38:48.967Z,97062.69
2023-03-08T17:43:51.391Z,97064.41
2023-03-08T17:48:54.765Z,97041.25
2023-03-08T17:54:01.371Z,96898.81
2023-03-08T17:59:03.647Z,96830.28
2023-03-08T18:04:06.027Z,96958.97
2023-03-08T18:09:10.813Z,97005.34
2023-03-08T18:14:14.615Z,96962.50
2023-03-08T18:19:16.998Z,97041.47
2023-03-08T18:24:19.143Z,96964.31
2023-03-08T18:29:21.332Z,97004.53
2023-03-08T18:34:30.048Z,96878.56
2023-03-08T18:39:32.383Z,97058.63
2023-03-08T18:44:34.923Z,96859.53
2023-03-08T18:49:37.550Z,96813.34
2023-03-08T18:54:41.441Z,96972.00
2023-03-08T18:59:43.742Z,96932.47
2023-03-08T19:04:46.047Z,97059.56
2023-03-08T19:09:48.291Z,96783.41
2023-03-08T19:14:52.632Z,97020.06
2023-03-08T19:19:55.060Z,96870.81
2023-03-08T19:24:57.328Z,96958.09
2023-03-08T19:29:59.629Z,96455.28
2023-03-08T19:35:03.228Z,97081.03
2023-03-08T19:40:09.619Z,97105.00
2023-03-08T19:45:12.538Z,97094.75
2023-03-08T19:50:16.169Z,97090.47
2023-03-08T19:55:18.489Z,96987.34
2023-03-08T20:00:21.097Z,97088.63
2023-03-08T20:05:23.536Z,96996.69
2023-03-08T20:10:26.049Z,97072.16
2023-03-08T20:15:28.405Z,97015.44
2023-03-08T20:20:30.918Z,97061.72
2023-03-08T20:25:36.146Z,97005.84
2023-03-08T20:30:39.170Z,96978.28
2023-03-08T20:35:41.712Z,97046.09
2023-03-08T20:40:43.936Z,97126.78
2023-03-08T20:45:46.405Z,96992.69
2023-03-08T20:50:48.941Z,97011.50
2023-03-08T20:55:51.084Z,97124.06
2023-03-08T21:00:53.361Z,97082.75
2023-03-08T21:05:55.525Z,97098.19
2023-03-08T21:10:58.912Z,97126.53
2023-03-08T21:16:06.140Z,97136.72
2023-03-08T21:21:08.288Z,97057.59
2023-03-08T21:26:11.067Z,97139.22
2023-03-08T21:31:14.485Z,97134.06
2023-03-08T21:36:17.296Z,97138.31
2023-03-08T21:41:21.564Z,97129.63
2023-03-08T21:46:24.454Z,97163.03
2023-03-08T21:51:26.659Z,97116.50
2023-03-08T21:56:28.940Z,97094.09
2023-03-08T22:01:31.867Z,97120.72
2023-03-08T22:06:34.112Z,97172.28
2023-03-08T22:11:36.366Z,97180.75
2023-03-08T22:16:40.244Z,97118.72
2023-03-08T22:21:42.582Z,97147.97
2023-03-08T22:26:44.739Z,97112.66
2023-03-08T22:31:46.846Z,97124.66
2023-03-08T22:36:49.384Z,97135.72
2023-03-08T22:41:51.546Z,97115.84
2023-03-08T22:46:53.704Z,97188.06
2023-03-08T22:51:56.133Z,97223.25
2023-03-08T22:56:58.371Z,97164.66
2023-03-08T23:02:00.548Z,97225.69
2023-03-08T23:07:02.733Z,97209.34
2023-03-08T23:12:06.381Z,97130.97
2023-03-08T23:17:08.485Z,97235.09
2023-03-08T23:22:12.094Z,97232.50
2023-03-08T23:27:14.283Z,97237.63
2023-03-08T23:32:16.398Z,97229.06
2023-03-08T23:37:18.448Z,97209.13
2023-03-08T23:42:20.548Z,97240.09
2023-03-08T23:47:22.669Z,97167.81
2023-03-08T23:52:24.904Z,97228.06
2023-03-08T23:57:27.056Z,97142.88
